Time;durP1;ratioP1;P1;durP2;ratioP2;P2;SDS_P1;SDS_P2;PMS_P1;PMS_P2;Temp;Humidity;BMP_temperature;BMP_pressure;BME280_temperature;BME280_humidity;BME280_pressure;Samples;Min_cycle;Max_cycle;Signal;HPM_P1;HPM_P2
2022/06/07 00:01:06;;;;;;;10.23;3.53;;;12.50;99.90;;;;;;5038291;28;20044;-69
2022/06/07 00:03:31;;;;;;;;;;;12.50;99.90;;;;;;5041281;28;20045;-70
2022/06/07 00:06:00;;;;;;;7.32;3.30;;;12.50;99.90;;;;;;5034281;28;20004;-70
2022/06/07 00:08:26;;;;;;;9.48;3.70;;;12.50;99.90;;;;;;5042968;28;20033;-70
2022/06/07 00:10:52;;;;;;;9.73;3.90;;;12.50;99.90;;;;;;5023018;28;20076;-70
2022/06/07 00:13:18;;;;;;;8.07;3.28;;;12.50;99.90;;;;;;5044557;28;20463;-70
2022/06/07 00:15:44;;;;;;;;;;;12.50;99.90;;;;;;5043063;28;20063;-70
2022/06/07 00:18:12;;;;;;;7.55;3.35;;;12.50;99.90;;;;;;5034053;28;20093;-69
2022/06/07 00:20:38;;;;;;;7.22;3.20;;;12.40;99.90;;;;;;5042558;28;20052;-70
2022/06/07 00:23:11;;;;;;;8.50;4.03;;;12.50;99.90;;;;;;5029660;28;20083;-70
2022/06/07 00:25:37;;;;;;;9.15;4.07;;;12.50;99.90;;;;;;5039107;28;20406;-70
2022/06/07 00:28:03;;;;;;;8.25;3.60;;;12.50;99.90;;;;;;5052349;28;20040;-70
2022/06/07 00:30:30;;;;;;;8.02;3.97;;;12.50;99.90;;;;;;5040845;28;20382;-70
2022/06/07 00:32:57;;;;;;;9.13;4.18;;;12.50;99.90;;;;;;5039649;28;20044;-70
2022/06/07 00:35:22;;;;;;;8.77;4.38;;;12.50;99.90;;;;;;5045073;28;20690;-70
2022/06/07 00:37:48;;;;;;;6.07;3.70;;;12.50;99.90;;;;;;5021433;28;20037;-70
2022/06/07 00:40:15;;;;;;;5.85;3.60;;;12.50;99.90;;;;;;5025177;28;20127;-69
2022/06/07 00:42:42;;;;;;;7.00;3.28;;;12.50;99.90;;;;;;5041418;28;20037;-70
2022/06/07 00:45:12;;;;;;;;;;;12.50;99.90;;;;;;5040333;28;20143;-73
2022/06/07 00:47:38;;;;;;;5.47;3.00;;;12.50;99.90;;;;;;5041959;28;20051;-71
2022/06/07 00:50:31;;;;;;;11.77;3.93;;;12.50;99.90;;;;;;5041383;28;20125;-70
2022/06/07 00:52:56;;;;;;;5.35;3.58;;;12.50;99.90;;;;;;5024846;28;20399;-70
2022/06/07 00:55:22;;;;;;;7.07;3.70;;;12.60;99.90;;;;;;5020442;28;20124;-70
2022/06/07 00:57:48;;;;;;;6.77;3.43;;;12.60;99.90;;;;;;5024161;28;20482;-70
2022/06/07 01:00:20;;;;;;;10.63;3.77;;;12.50;99.90;;;;;;5041571;28;20652;-70
2022/06/07 01:02:45;;;;;;;11.15;3.53;;;12.60;99.90;;;;;;5040105;28;20366;-71
2022/06/07 01:05:11;;;;;;;7.33;3.63;;;12.60;99.90;;;;;;5016797;28;20049;-70
2022/06/07 01:10:44;;;;;;;8.82;3.80;;;12.60;99.90;;;;;;4986162;28;20079;-70
2022/06/07 01:13:10;;;;;;;6.75;2.97;;;12.60;99.90;;;;;;5024308;28;20441;-70
2022/06/07 01:15:36;;;;;;;6.07;3.58;;;12.60;99.90;;;;;;5023094;28;20493;-70
2022/06/07 01:18:02;;;;;;;10.75;4.15;;;12.60;99.90;;;;;;5034105;28;20296;-70
2022/06/07 01:20:29;;;;;;;6.63;4.05;;;12.60;99.90;;;;;;5038905;28;20160;-70
2022/06/07 01:22:55;;;;;;;6.63;4.15;;;12.60;99.90;;;;;;5020504;28;20075;-70
2022/06/07 01:25:21;;;;;;;6.57;3.63;;;12.60;99.90;;;;;;5040370;28;20052;-70
2022/06/07 01:27:47;;;;;;;8.65;4.22;;;12.60;99.90;;;;;;5041434;28;20131;-70
2022/06/07 01:30:13;;;;;;;8.67;3.90;;;12.60;99.90;;;;;;5034203;28;20446;-70
2022/06/07 01:32:59;;;;;;;7.28;3.80;;;12.60;99.90;;;;;;5059333;22;20024;-85
2022/06/07 01:35:38;;;;;;;8.30;4.15;;;12.60;99.90;;;;;;5015722;28;20052;-85
2022/06/07 01:38:34;;;;;;;9.35;4.10;;;12.60;99.90;;;;;;5020941;28;20079;-86
2022/06/07 01:43:59;;;;;;;7.90;3.88;;;12.60;99.90;;;;;;5053144;28;20056;-86
2022/06/07 01:46:36;;;;;;;7.80;3.90;;;12.70;99.90;;;;;;5030782;28;20498;-86
2022/06/07 01:49:15;;;;;;;8.55;4.00;;;12.60;99.90;;;;;;5034694;28;20079;-87
2022/06/07 01:51:48;;;;;;;7.72;3.65;;;12.70;99.90;;;;;;5030121;28;20055;-88
2022/06/07 01:54:41;;;;;;;7.32;3.47;;;12.70;99.90;;;;;;5046458;28;20044;-84
2022/06/07 01:57:14;;;;;;;9.93;3.60;;;12.70;99.90;;;;;;5047905;28;20070;-87
2022/06/07 01:59:44;;;;;;;7.13;4.13;;;12.70;99.90;;;;;;5060630;28;20033;-87
2022/06/07 02:02:27;;;;;;;7.03;4.25;;;12.70;99.90;;;;;;5024632;28;20053;-86
2022/06/07 02:05:01;;;;;;;6.07;3.45;;;12.70;99.90;;;;;;5018420;28;20050;-86
2022/06/07 02:07:42;;;;;;;7.45;3.50;;;12.70;99.90;;;;;;5024109;28;20045;-86
2022/06/07 02:10:27;;;;;;;9.50;3.58;;;12.80;99.90;;;;;;5044773;28;20374;-87
2022/06/07 02:13:01;;;;;;;7.85;4.10;;;12.70;99.90;;;;;;5042667;28;20047;-86
2022/06/07 02:15:33;;;;;;;7.10;4.18;;;12.70;99.90;;;;;;5030935;28;20470;-86
2022/06/07 02:18:04;;;;;;;7.97;4.00;;;12.80;99.90;;;;;;5025228;28;20125;-86
2022/06/07 02:20:37;;;;;;;8.18;4.13;;;12.80;99.90;;;;;;5061873;28;20040;-86
2022/06/07 02:23:11;;;;;;;7.93;4.20;;;12.80;99.90;;;;;;5027461;28;20128;-85
2022/06/07 02:25:48;;;;;;;9.95;4.25;;;12.80;99.90;;;;;;5033512;28;20041;-86
2022/06/07 02:28:27;;;;;;;8.90;4.20;;;12.90;99.90;;;;;;5045924;28;20044;-85
2022/06/07 02:31:01;;;;;;;9.68;4.88;;;12.80;99.90;;;;;;5045996;28;20044;-86
2022/06/07 02:33:37;;;;;;;6.13;3.50;;;12.80;99.90;;;;;;5032754;28;20049;-86
2022/06/07 02:36:10;;;;;;;13.10;4.32;;;12.90;99.90;;;;;;5046876;28;20055;-86
2022/06/07 02:38:53;;;;;;;8.20;4.57;;;12.80;99.90;;;;;;5049281;28;20052;-86
2022/06/07 02:41:24;;;;;;;13.45;4.93;;;12.80;99.90;;;;;;5060955;28;20119;-86
2022/06/07 02:44:11;;;;;;;;;;;;;;;;;;;;;
2022/06/07 02:46:56;;;;;;;7.20;4.47;;;12.80;99.90;;;;;;5047150;28;20563;-85
2022/06/07 02:49:31;;;;;;;8.13;4.10;;;12.80;99.90;;;;;;5046494;28;20530;-88
2022/06/07 02:52:12;;;;;;;7.53;4.88;;;12.80;99.90;;;;;;5030204;28;20040;-86
2022/06/07 02:54:41;;;;;;;9.60;4.88;;;12.80;99.90;;;;;;5046292;28;20155;-86
2022/06/07 02:57:18;;;;;;;12.68;4.10;;;12.90;99.90;;;;;;5050576;28;20032;-86
2022/06/07 02:59:59;;;;;;;10.52;5.03;;;12.90;99.90;;;;;;5045757;28;20059;-87
2022/06/07 03:02:36;;;;;;;10.80;4.70;;;12.90;99.90;;;;;;5050323;28;20040;-86
2022/06/07 03:05:07;;;;;;;9.33;4.70;;;12.90;99.90;;;;;;5048383;28;20136;-86
2022/06/07 03:07:39;;;;;;;8.30;4.20;;;12.90;99.90;;;;;;5038392;28;20860;-86
2022/06/07 03:10:18;;;;;;;10.48;3.97;;;12.90;99.90;;;;;;5049501;28;20048;-87
2022/06/07 03:12:47;;;;;;;7.75;3.92;;;12.90;99.90;;;;;;5026394;28;20464;-86
2022/06/07 03:15:18;;;;;;;5.40;3.35;;;12.90;99.90;;;;;;5046988;28;20127;-86
2022/06/07 03:17:49;;;;;;;6.68;3.63;;;12.90;99.90;;;;;;5027662;28;20044;-84
2022/06/07 03:20:18;;;;;;;6.57;3.70;;;12.80;99.90;;;;;;5062035;28;20033;-86
2022/06/07 03:22:52;;;;;;;10.48;3.40;;;12.90;99.90;;;;;;5028860;28;20039;-88
2022/06/07 03:25:34;;;;;;;9.70;3.42;;;12.80;99.90;;;;;;5046456;28;20072;-86
2022/06/07 03:28:10;;;;;;;7.82;3.75;;;12.80;99.90;;;;;;5032027;28;20056;-87
2022/06/07 03:30:46;;;;;;;7.18;3.63;;;12.80;99.90;;;;;;5064575;28;20036;-87
2022/06/07 03:33:12;;;;;;;9.98;3.38;;;12.70;99.90;;;;;;5035435;28;20088;-86
2022/06/07 03:35:38;;;;;;;5.75;3.55;;;12.60;99.90;;;;;;5028519;28;20083;-86
2022/06/07 03:38:07;;;;;;;5.72;3.25;;;12.60;99.90;;;;;;5042855;28;20124;-86
2022/06/07 03:40:44;;;;;;;6.32;3.72;;;12.50;99.90;;;;;;5047973;28;20029;-86
2022/06/07 03:43:38;;;;;;;8.65;3.63;;;12.50;99.90;;;;;;5045961;28;20044;-86
2022/06/07 03:46:15;;;;;;;6.57;3.28;;;12.50;99.90;;;;;;5067583;28;20042;-86
2022/06/07 03:48:47;;;;;;;5.78;3.30;;;12.40;99.90;;;;;;5036022;28;20040;-86
2022/06/07 03:51:22;;;;;;;8.27;3.13;;;12.40;99.90;;;;;;5023698;28;20048;-87
2022/06/07 03:53:55;;;;;;;8.65;3.65;;;12.40;99.90;;;;;;5061289;28;20036;-87
2022/06/07 03:56:23;;;;;;;5.68;2.70;;;12.40;99.90;;;;;;5050140;28;20407;-86
2022/06/07 03:58:52;;;;;;;9.88;3.67;;;12.30;99.90;;;;;;5032026;28;20629;-86
2022/06/07 04:01:41;;;;;;;8.00;3.13;;;12.20;99.90;;;;;;5050093;28;20159;-86
2022/06/07 04:04:10;;;;;;;9.15;3.15;;;12.20;99.90;;;;;;5033436;28;20052;-86
2022/06/07 04:09:39;;;;;;;5.15;3.22;;;12.10;99.90;;;;;;5070994;28;20076;-86
2022/06/07 04:12:16;;;;;;;8.82;2.95;;;12.10;99.90;;;;;;5048839;28;20103;-87
2022/06/07 04:14:59;;;;;;;6.97;3.50;;;12.10;99.90;;;;;;5068577;28;20038;-85
2022/06/07 04:17:51;;;;;;;;;;;;;;;;;;;;;
2022/06/07 04:20:22;;;;;;;7.65;3.45;;;12.10;99.90;;;;;;5056537;28;20415;-86
2022/06/07 04:23:01;;;;;;;8.10;3.65;;;12.10;99.90;;;;;;5041787;28;20505;-87
2022/06/07 04:25:35;;;;;;;5.50;2.97;;;12.20;99.90;;;;;;5049007;28;20028;-86
2022/06/07 04:28:01;;;;;;;10.68;4.18;;;12.20;99.90;;;;;;5056652;28;20044;-86
2022/06/07 04:30:51;;;;;;;;;;;;;;;;;;;;;
2022/06/07 04:33:17;;;;;;;7.60;3.15;;;12.20;99.90;;;;;;5063670;28;20049;-86
2022/06/07 04:35:45;;;;;;;6.72;2.83;;;12.20;99.90;;;;;;5071815;28;20102;-87
2022/06/07 04:38:11;;;;;;;4.75;2.72;;;12.20;99.90;;;;;;5057482;28;20048;-85
2022/06/07 04:41:13;;;;;;;10.45;2.97;;;12.20;99.90;;;;;;5066828;28;20047;-87
2022/06/07 04:44:14;;;;;;;6.07;3.42;;;12.30;99.90;;;;;;5070081;28;20423;-86
2022/06/07 04:46:40;;;;;;;8.45;4.15;;;12.20;99.90;;;;;;5014027;28;20064;-88
2022/06/07 04:49:14;;;;;;;6.93;3.88;;;12.30;99.90;;;;;;5038972;28;20087;-86
2022/06/07 04:52:04;;;;;;;6.65;3.83;;;12.30;99.90;;;;;;5046446;28;20044;-86
2022/06/07 04:54:33;;;;;;;6.90;4.07;;;12.20;99.90;;;;;;5036871;28;20044;-87
2022/06/07 04:56:58;;;;;;;8.02;3.58;;;12.30;99.90;;;;;;5068977;28;20086;-87
2022/06/07 04:59:24;;;;;;;14.03;3.67;;;12.30;99.90;;;;;;5050800;28;20037;-86
2022/06/07 05:02:10;;;;;;;7.97;3.67;;;12.40;99.90;;;;;;5040272;28;20039;-86
2022/06/07 05:04:36;;;;;;;9.57;3.13;;;12.30;99.90;;;;;;5048714;28;20311;-85
2022/06/07 05:07:07;;;;;;;7.68;3.15;;;12.30;99.90;;;;;;5045640;28;20357;-86
2022/06/07 05:09:53;;;;;;;7.00;3.15;;;12.30;99.90;;;;;;5052942;28;20066;-87
2022/06/07 05:12:22;;;;;;;6.55;2.90;;;12.20;99.90;;;;;;5046476;28;20056;-86
2022/06/07 05:14:49;;;;;;;6.82;2.88;;;12.20;99.90;;;;;;5067963;28;20029;-85
2022/06/07 05:17:18;;;;;;;5.78;2.78;;;12.20;99.90;;;;;;5031863;28;20048;-88
2022/06/07 05:19:47;;;;;;;8.15;3.28;;;12.20;99.90;;;;;;5059908;28;20033;-86
2022/06/07 05:22:24;;;;;;;9.05;2.90;;;12.20;99.90;;;;;;5040496;28;20050;-85
2022/06/07 05:24:55;;;;;;;7.35;2.58;;;12.20;99.90;;;;;;5067453;28;20079;-86
2022/06/07 05:27:40;;;;;;;6.68;2.75;;;12.20;99.90;;;;;;5049493;28;20033;-86
2022/06/07 05:30:18;;;;;;;5.25;2.05;;;12.20;99.90;;;;;;5047002;28;20052;-85
2022/06/07 05:33:02;;;;;;;5.68;2.78;;;12.20;99.90;;;;;;5026751;28;20037;-86
2022/06/07 05:35:30;;;;;;;3.72;1.73;;;12.20;99.90;;;;;;5068979;28;20041;-88
2022/06/07 05:37:58;;;;;;;5.28;2.00;;;12.20;99.90;;;;;;5072982;28;20036;-88
2022/06/07 05:40:26;;;;;;;6.75;2.00;;;12.20;99.90;;;;;;5057062;28;20040;-86
2022/06/07 05:43:10;;;;;;;4.70;1.80;;;12.10;99.90;;;;;;5038423;28;20037;-87
2022/06/07 05:45:37;;;;;;;5.00;2.40;;;12.20;99.90;;;;;;5036531;28;20036;-87
2022/06/07 05:48:09;;;;;;;5.32;1.88;;;12.20;99.90;;;;;;5026531;28;20032;-86
2022/06/07 05:50:37;;;;;;;6.63;2.22;;;12.20;99.90;;;;;;5052946;28;20051;-86
2022/06/07 05:53:04;;;;;;;4.10;1.85;;;12.10;99.90;;;;;;5026269;28;20045;-86
2022/06/07 05:55:43;;;;;;;;;;;;;;;;;;;;;
2022/06/07 05:58:42;;;;;;;8.13;1.83;;;12.20;99.90;;;;;;5049077;28;20505;-87
2022/06/07 06:01:40;;;;;;;3.13;1.88;;;12.10;99.90;;;;;;5024380;28;20059;-86
2022/06/07 06:04:25;;;;;;;6.30;1.85;;;12.10;99.90;;;;;;5052428;28;20410;-84
2022/06/07 06:06:58;;;;;;;5.32;2.10;;;12.00;99.90;;;;;;5067923;28;20096;-87
2022/06/07 06:12:46;;;;;;;2.92;1.52;;;12.10;99.90;;;;;;4998143;28;20068;-86
2022/06/07 06:15:21;;;;;;;4.32;0.93;;;12.10;99.90;;;;;;5069643;28;20037;-87
2022/06/07 06:18:00;;;;;;;2.80;0.88;;;12.10;99.90;;;;;;5049077;28;20040;-88
2022/06/07 06:20:39;;;;;;;2.35;0.90;;;12.10;99.90;;;;;;5053570;28;20040;-86
2022/06/07 06:23:19;;;;;;;3.50;1.05;;;12.00;99.90;;;;;;5047738;28;20099;-87
2022/06/07 06:25:47;;;;;;;1.48;0.90;;;12.10;99.90;;;;;;5027404;28;20414;-88
2022/06/07 06:28:19;;;;;;;5.35;1.23;;;12.10;99.90;;;;;;5058674;28;20037;-87
2022/06/07 06:30:46;;;;;;;2.83;1.10;;;12.10;99.90;;;;;;5034149;28;20035;-87
2022/06/07 06:33:14;;;;;;;3.25;1.42;;;12.10;99.90;;;;;;5049190;28;20047;-86
2022/06/07 06:36:00;;;;;;;4.07;1.10;;;12.10;99.90;;;;;;5049812;28;20075;-87
2022/06/07 06:38:49;;;;;;;4.82;1.05;;;12.10;99.90;;;;;;5066734;28;20040;-86
2022/06/07 06:42:03;;;;;;;4.10;1.10;;;12.10;99.90;;;;;;5040261;28;20052;-87
2022/06/07 06:44:32;;;;;;;6.72;1.08;;;12.10;99.90;;;;;;5041662;28;20163;-84
2022/06/07 06:47:00;;;;;;;9.00;1.15;;;12.10;99.90;;;;;;5065913;28;20040;-86
2022/06/07 06:49:32;;;;;;;6.68;1.42;;;12.10;99.90;;;;;;5025974;28;20094;-86
2022/06/07 06:52:07;;;;;;;3.35;0.88;;;12.10;99.90;;;;;;5040566;28;20052;-87
2022/06/07 06:54:38;;;;;;;3.22;1.27;;;12.20;99.90;;;;;;5063376;28;20446;-86
2022/06/07 06:57:16;;;;;;;4.65;1.00;;;12.20;99.90;;;;;;5029904;28;20044;-87
2022/06/07 06:59:47;;;;;;;6.28;0.80;;;12.20;99.90;;;;;;5047153;28;20074;-84
2022/06/07 07:02:13;;;;;;;2.42;0.95;;;12.20;99.90;;;;;;5038544;28;20530;-85
2022/06/07 07:04:42;;;;;;;4.97;1.27;;;12.30;99.90;;;;;;5049700;28;20045;-87
2022/06/07 07:07:16;;;;;;;4.57;0.80;;;12.30;99.90;;;;;;5051718;28;20044;-85
2022/06/07 07:09:42;;;;;;;4.38;1.15;;;12.40;99.90;;;;;;5034892;28;20105;-86
2022/06/07 07:12:08;;;;;;;3.13;1.00;;;12.40;99.90;;;;;;5049373;28;20494;-87
2022/06/07 07:14:35;;;;;;;5.00;0.90;;;12.50;99.90;;;;;;5053071;28;20060;-86
2022/06/07 07:17:04;;;;;;;4.40;1.30;;;12.50;99.90;;;;;;5032709;28;20047;-87
2022/06/07 07:19:51;;;;;;;5.70;1.20;;;12.60;99.90;;;;;;5024928;28;20037;-87
2022/06/07 07:22:22;;;;;;;5.50;0.70;;;12.60;99.90;;;;;;5055727;28;20119;-87
2022/06/07 07:24:50;;;;;;;3.75;1.10;;;12.80;99.90;;;;;;5049755;28;20040;-86
2022/06/07 07:27:23;;;;;;;3.55;0.88;;;12.70;99.90;;;;;;5045881;28;20141;-87
2022/06/07 07:29:49;;;;;;;5.78;1.00;;;12.80;99.90;;;;;;5036637;28;20110;-86
2022/06/07 07:32:54;;;;;;;2.30;0.90;;;12.90;99.90;;;;;;5071736;28;20032;-85
2022/06/07 07:35:20;;;;;;;2.85;1.00;;;13.00;99.90;;;;;;5080322;22;20048;-70
2022/06/07 07:37:46;;;;;;;4.35;1.02;;;13.00;99.90;;;;;;5046753;28;20029;-69
2022/06/07 07:40:12;;;;;;;3.77;1.53;;;13.10;99.90;;;;;;5047917;28;20049;-72
2022/06/07 07:42:38;;;;;;;3.92;0.85;;;13.20;99.90;;;;;;5045136;28;20443;-70
2022/06/07 07:45:04;;;;;;;5.25;1.40;;;13.30;99.90;;;;;;5045813;28;20049;-69
2022/06/07 07:47:30;;;;;;;2.45;0.95;;;13.30;99.90;;;;;;5042347;28;20037;-70
2022/06/07 07:49:56;;;;;;;3.85;0.82;;;13.40;99.90;;;;;;5037253;28;20053;-70
2022/06/07 07:52:22;;;;;;;3.05;0.90;;;13.40;99.90;;;;;;5045585;28;20048;-70
2022/06/07 07:54:48;;;;;;;3.72;1.05;;;13.40;99.90;;;;;;5033835;28;20040;-69
2022/06/07 07:57:14;;;;;;;5.57;1.17;;;13.40;99.90;;;;;;5036128;28;20090;-70
2022/06/07 07:59:39;;;;;;;3.30;1.00;;;13.50;99.90;;;;;;5031081;28;20127;-70
2022/06/07 08:02:05;;;;;;;2.35;0.88;;;13.50;99.90;;;;;;5043829;28;20126;-70
2022/06/07 08:04:31;;;;;;;6.15;1.05;;;13.60;99.90;;;;;;5043575;28;20044;-70
2022/06/07 08:06:57;;;;;;;5.53;1.00;;;13.70;99.90;;;;;;5038605;28;20438;-70
2022/06/07 08:09:26;;;;;;;5.05;0.80;;;13.70;99.90;;;;;;5046452;28;20083;-70
2022/06/07 08:11:52;;;;;;;4.38;1.58;;;13.70;99.90;;;;;;5045349;28;20068;-70
2022/06/07 08:14:18;;;;;;;3.78;1.08;;;13.70;99.90;;;;;;5025808;28;20072;-69
2022/06/07 08:16:49;;;;;;;5.95;1.08;;;13.70;99.90;;;;;;5028290;28;20137;-69
2022/06/07 08:19:14;;;;;;;8.90;2.15;;;13.80;99.90;;;;;;5034761;28;20033;-70
2022/06/07 08:21:40;;;;;;;3.55;0.90;;;13.80;99.90;;;;;;5033162;28;20117;-70
2022/06/07 08:24:06;;;;;;;4.60;1.00;;;13.80;99.90;;;;;;5020749;28;20045;-70
2022/06/07 08:26:33;;;;;;;3.95;1.52;;;13.90;99.90;;;;;;5043878;28;20033;-69
2022/06/07 08:28:59;;;;;;;4.53;1.20;;;13.90;99.90;;;;;;5045187;28;20074;-70
2022/06/07 08:31:27;;;;;;;;;;;13.90;99.90;;;;;;5037105;28;20077;-70
2022/06/07 08:39:22;;;;;;;5.60;0.98;;;13.90;99.90;;;;;;5050233;28;20659;-69
2022/06/07 08:41:47;;;;;;;;;;;13.90;99.90;;;;;;5050699;28;20115;-69
2022/06/07 08:44:46;;;;;;;2.80;1.02;;;13.90;99.90;;;;;;5050192;28;20013;-69
2022/06/07 08:47:33;;;;;;;8.20;1.20;;;13.90;99.90;;;;;;5027814;28;20127;-70
2022/06/07 08:50:02;;;;;;;8.25;1.05;;;13.90;99.90;;;;;;5029396;28;20057;-70
2022/06/07 08:52:33;;;;;;;3.03;1.33;;;14.00;99.90;;;;;;5038260;28;20037;-70
2022/06/07 08:55:01;;;;;;;4.57;1.10;;;14.00;99.90;;;;;;5022614;28;20033;-70
2022/06/07 08:57:35;;;;;;;5.70;1.00;;;14.00;99.90;;;;;;5041678;28;20038;-69
2022/06/07 09:00:14;;;;;;;4.05;0.80;;;14.10;99.90;;;;;;5024549;28;20044;-69
2022/06/07 09:03:21;;;;;;;3.33;0.90;;;14.20;99.90;;;;;;5039358;28;20033;-68
2022/06/07 09:05:55;;;;;;;5.13;0.93;;;14.30;99.90;;;;;;5049320;28;20524;-68
2022/06/07 09:08:23;;;;;;;4.50;0.98;;;14.40;99.90;;;;;;5044249;28;20299;-68
2022/06/07 09:13:37;;;;;;;4.28;1.52;;;14.50;99.90;;;;;;5042025;28;20679;-68
2022/06/07 09:16:03;;;;;;;;;;;14.50;99.90;;;;;;5043149;28;20098;-68
2022/06/07 09:18:31;;;;;;;6.90;1.27;;;14.50;99.90;;;;;;5044013;28;20295;-68
2022/06/07 09:21:08;;;;;;;4.38;0.90;;;14.50;99.90;;;;;;5031079;28;20091;-69
2022/06/07 09:23:46;;;;;;;6.95;1.20;;;14.50;99.90;;;;;;5032004;28;20142;-68
2022/06/07 09:26:19;;;;;;;5.68;1.08;;;14.50;99.90;;;;;;5038055;28;20124;-73
2022/06/07 09:28:48;;;;;;;3.55;0.82;;;14.40;99.90;;;;;;5022686;28;20045;-69
2022/06/07 09:31:17;;;;;;;7.05;1.20;;;14.40;99.90;;;;;;5041956;28;20076;-69
2022/06/07 09:33:56;;;;;;;4.75;1.42;;;14.40;99.90;;;;;;5027571;28;20045;-69
2022/06/07 09:36:27;;;;;;;9.52;1.08;;;14.30;99.90;;;;;;5038777;28;20049;-69
2022/06/07 09:38:57;;;;;;;6.00;1.35;;;14.30;99.90;;;;;;5038046;28;20380;-68
2022/06/07 09:41:39;;;;;;;4.00;0.68;;;14.30;99.90;;;;;;5045265;28;20041;-69
2022/06/07 09:44:21;;;;;;;3.53;0.88;;;14.30;99.90;;;;;;5041843;28;20124;-69
2022/06/07 09:47:15;;;;;;;2.47;0.70;;;14.30;99.90;;;;;;5038997;28;20365;-69
2022/06/07 09:50:10;;;;;;;6.43;0.80;;;14.30;99.90;;;;;;5037494;28;20053;-69
2022/06/07 09:52:57;;;;;;;2.65;1.02;;;14.30;99.90;;;;;;5018120;28;20065;-69
2022/06/07 09:55:32;;;;;;;7.67;1.13;;;14.20;99.90;;;;;;5055827;28;20108;-68
2022/06/07 09:58:03;;;;;;;1.45;0.55;;;14.30;99.90;;;;;;5043823;28;20041;-69
2022/06/07 10:00:36;;;;;;;4.10;0.73;;;14.30;99.90;;;;;;5033583;28;20045;-69
2022/06/07 10:03:24;;;;;;;2.97;0.68;;;14.40;99.90;;;;;;5035889;28;20150;-69
2022/06/07 10:06:11;;;;;;;4.25;1.52;;;14.50;99.90;;;;;;5024675;28;20155;-69
2022/06/07 10:08:49;;;;;;;3.50;0.95;;;14.60;99.90;;;;;;5038802;28;20347;-69
2022/06/07 10:11:23;;;;;;;7.32;1.00;;;14.70;99.90;;;;;;5025782;28;20061;-69
2022/06/07 10:14:13;;;;;;;7.40;0.90;;;14.70;99.90;;;;;;5028837;28;20060;-69
2022/06/07 10:16:51;;;;;;;2.55;1.02;;;14.70;99.90;;;;;;5052066;28;20041;-69
2022/06/07 10:19:20;;;;;;;5.72;2.20;;;14.70;99.90;;;;;;5032415;28;20040;-68
2022/06/07 10:22:14;;;;;;;5.35;1.10;;;14.70;99.90;;;;;;5040067;28;20562;-68
2022/06/07 10:24:48;;;;;;;4.13;1.20;;;14.60;99.90;;;;;;5038400;28;20056;-68
2022/06/07 10:27:25;;;;;;;6.13;1.10;;;14.50;99.90;;;;;;5040447;28;20104;-68
2022/06/07 10:30:11;;;;;;;8.32;1.55;;;14.40;99.90;;;;;;5040516;28;20051;-68
2022/06/07 10:32:40;;;;;;;2.92;1.13;;;14.40;99.90;;;;;;5030207;28;20086;-69
2022/06/07 10:35:15;;;;;;;9.50;1.10;;;14.50;99.90;;;;;;5035346;28;20042;-68
2022/06/07 10:37:53;;;;;;;4.90;0.80;;;14.40;99.90;;;;;;5042801;28;20083;-69
2022/06/07 10:40:32;;;;;;;5.00;1.60;;;14.40;99.90;;;;;;5035734;28;20037;-69
2022/06/07 10:43:10;;;;;;;2.90;1.02;;;14.40;99.90;;;;;;5033305;28;20070;-69
2022/06/07 10:45:39;;;;;;;5.90;0.77;;;14.50;99.90;;;;;;5034299;28;20033;-69
2022/06/07 10:48:16;;;;;;;4.13;0.65;;;14.40;99.90;;;;;;5036436;28;20405;-69
2022/06/07 10:51:03;;;;;;;8.73;1.60;;;14.50;99.90;;;;;;5027111;28;20040;-69
2022/06/07 10:53:36;;;;;;;1.85;0.85;;;14.50;99.90;;;;;;5031658;28;20053;-69
2022/06/07 10:56:14;;;;;;;5.22;0.90;;;14.50;99.90;;;;;;5038858;28;20374;-69
2022/06/07 10:58:43;;;;;;;2.63;1.00;;;14.50;99.90;;;;;;5040271;28;20474;-69
2022/06/07 11:01:14;;;;;;;2.38;1.02;;;14.50;99.90;;;;;;5020358;28;20096;-69
2022/06/07 11:10:03;;;;;;;1.98;0.60;;;14.60;99.90;;;;;;5044333;28;20053;-69
2022/06/07 11:12:51;;;;;;;3.72;0.80;;;14.70;99.90;;;;;;5039089;28;20056;-69
2022/06/07 11:15:40;;;;;;;5.30;1.02;;;14.70;99.90;;;;;;5041041;28;20048;-70
2022/06/07 11:18:23;;;;;;;1.55;0.82;;;14.80;99.90;;;;;;5024779;28;20044;-69
2022/06/07 11:21:00;;;;;;;2.45;0.80;;;14.80;99.90;;;;;;5030137;28;20041;-69
2022/06/07 11:23:37;;;;;;;8.52;1.73;;;14.80;99.90;;;;;;5029147;28;20330;-68
2022/06/07 11:26:29;;;;;;;2.95;0.98;;;14.80;99.90;;;;;;5040030;28;20468;-68
2022/06/07 11:28:56;;;;;;;3.40;0.73;;;14.90;99.90;;;;;;5039349;28;20112;-68
2022/06/07 11:31:34;;;;;;;2.70;0.82;;;14.90;99.90;;;;;;5051297;28;20040;-68
2022/06/07 11:34:29;;;;;;;1.33;0.73;;;15.00;99.90;;;;;;5025039;28;20048;-69
2022/06/07 11:37:21;;;;;;;3.80;1.00;;;15.10;99.90;;;;;;5042843;28;20079;-68
2022/06/07 11:39:54;;;;;;;8.25;1.10;;;15.10;99.90;;;;;;5050203;28;20110;-68
2022/06/07 11:42:36;;;;;;;3.75;0.70;;;15.20;99.90;;;;;;5045577;28;20044;-68
2022/06/07 11:45:05;;;;;;;5.50;1.35;;;15.20;99.90;;;;;;5048282;28;20037;-68
2022/06/07 11:47:46;;;;;;;6.80;1.08;;;15.20;99.90;;;;;;5027499;28;20121;-69
2022/06/07 11:50:54;;;;;;;3.63;0.90;;;15.20;99.90;;;;;;5037739;28;20088;-69
2022/06/07 11:53:24;;;;;;;5.30;1.23;;;15.20;99.90;;;;;;5033968;28;20060;-68
2022/06/07 11:56:22;;;;;;;1.90;0.77;;;15.20;99.90;;;;;;5037773;28;20470;-68
2022/06/07 11:59:00;;;;;;;7.85;1.20;;;15.30;99.90;;;;;;5018212;28;20443;-68
2022/06/07 12:01:33;;;;;;;4.65;0.82;;;15.30;99.90;;;;;;5041551;28;20430;-68
2022/06/07 12:04:28;;;;;;;3.75;0.90;;;15.20;99.90;;;;;;5028880;28;20049;-69
2022/06/07 12:06:57;;;;;;;4.30;1.20;;;15.20;99.90;;;;;;5032951;28;20049;-68
2022/06/07 12:09:23;;;;;;;4.60;0.98;;;15.20;99.90;;;;;;5045571;28;20366;-68
2022/06/07 12:11:48;;;;;;;7.28;1.45;;;15.20;99.90;;;;;;5038862;28;20048;-68
2022/06/07 12:14:14;;;;;;;6.30;1.00;;;15.20;99.90;;;;;;5040443;28;20050;-68
2022/06/07 12:16:53;;;;;;;3.55;0.95;;;15.20;99.90;;;;;;5042173;28;20405;-68
2022/06/07 12:19:22;;;;;;;2.92;0.60;;;15.30;99.90;;;;;;5036851;28;20043;-68
2022/06/07 12:22:05;;;;;;;3.95;0.60;;;15.40;99.90;;;;;;5042045;28;20037;-71
2022/06/07 12:24:47;;;;;;;3.45;0.80;;;15.40;99.90;;;;;;5031924;28;20056;-69
2022/06/07 12:27:30;;;;;;;6.30;0.60;;;15.40;99.90;;;;;;5042494;28;20462;-69
2022/06/07 12:30:17;;;;;;;2.50;0.65;;;15.40;99.90;;;;;;5046263;28;20040;-69
2022/06/07 12:32:43;;;;;;;3.72;1.13;;;15.50;99.90;;;;;;5038838;28;20049;-69
2022/06/07 12:35:27;;;;;;;7.55;1.00;;;15.60;99.90;;;;;;5036416;28;20507;-69
2022/06/07 12:37:56;;;;;;;4.25;0.93;;;15.70;99.90;;;;;;5046685;28;20171;-69
2022/06/07 12:40:23;;;;;;;4.80;0.68;;;15.60;99.90;;;;;;5041558;28;20041;-69
2022/06/07 12:42:49;;;;;;;4.35;1.48;;;15.60;99.90;;;;;;5049053;28;20041;-69
2022/06/07 12:45:21;;;;;;;3.63;0.77;;;15.60;99.90;;;;;;5040115;28;20045;-69
2022/06/07 12:47:54;;;;;;;3.33;1.17;;;15.60;99.90;;;;;;5038134;28;20045;-67
2022/06/07 12:50:24;;;;;;;2.67;1.08;;;15.60;99.90;;;;;;5020844;28;20047;-68
2022/06/07 12:52:52;;;;;;;6.72;1.02;;;15.70;99.90;;;;;;5038280;28;20055;-67
2022/06/07 12:55:25;;;;;;;5.32;1.13;;;15.60;99.90;;;;;;5044745;28;20048;-68
2022/06/07 12:58:04;;;;;;;3.95;1.15;;;15.80;99.90;;;;;;5041078;28;20482;-68
2022/06/07 13:00:47;;;;;;;2.80;0.90;;;15.90;99.90;;;;;;5037263;28;20041;-68
2022/06/07 13:03:32;;;;;;;4.60;0.90;;;16.00;99.90;;;;;;5042511;28;20040;-68
2022/06/07 13:06:01;;;;;;;4.70;0.75;;;16.10;99.90;;;;;;5038784;28;20056;-68
2022/06/07 13:08:34;;;;;;;4.35;0.90;;;16.20;99.90;;;;;;5026893;28;20045;-68
2022/06/07 13:11:00;;;;;;;2.88;0.60;;;16.30;99.90;;;;;;5037328;28;20501;-68
2022/06/07 13:13:36;;;;;;;5.63;1.42;;;16.40;99.90;;;;;;5047185;28;20044;-68
2022/06/07 13:16:08;;;;;;;7.13;1.48;;;16.40;99.90;;;;;;5025791;28;20095;-68
2022/06/07 13:18:57;;;;;;;3.22;0.93;;;16.50;99.90;;;;;;5030280;28;20057;-68
2022/06/07 13:21:31;;;;;;;2.63;0.95;;;16.50;99.90;;;;;;5036527;28;20037;-68
2022/06/07 13:23:58;;;;;;;3.05;1.10;;;16.50;99.90;;;;;;5030953;28;20140;-68
2022/06/07 13:26:42;;;;;;;4.95;1.70;;;16.40;99.90;;;;;;5029157;28;20397;-68
2022/06/07 13:29:10;;;;;;;4.63;1.55;;;16.40;99.90;;;;;;5039772;28;20044;-68
2022/06/07 13:31:59;;;;;;;4.70;1.05;;;16.30;99.90;;;;;;5033349;28;20294;-68
2022/06/07 13:34:33;;;;;;;8.27;1.10;;;16.30;99.90;;;;;;5038324;22;20037;-66
2022/06/07 13:37:13;;;;;;;1.83;0.80;;;16.20;99.90;;;;;;5059651;28;20454;-67
2022/06/07 13:39:57;;;;;;;5.88;1.40;;;16.10;99.90;;;;;;5046025;28;20041;-67
2022/06/07 13:42:26;;;;;;;2.60;1.02;;;16.10;99.90;;;;;;5043984;28;20120;-67
2022/06/07 13:45:11;;;;;;;7.57;1.15;;;16.00;99.90;;;;;;5044511;28;20043;-68
2022/06/07 13:47:46;;;;;;;5.40;1.63;;;15.80;99.90;;;;;;5042794;28;20041;-67
2022/06/07 13:53:26;;;;;;;4.53;1.50;;;15.70;99.90;;;;;;5039392;28;20124;-67
2022/06/07 13:56:04;;;;;;;4.40;1.48;;;15.70;99.90;;;;;;5044572;28;20061;-67
2022/06/07 13:58:40;;;;;;;3.35;0.80;;;15.70;99.90;;;;;;5032077;28;20144;-67
2022/06/07 14:01:11;;;;;;;7.45;1.73;;;15.80;99.90;;;;;;5047022;28;20426;-67